sensor_id;sensor_type;location;lat;lon;timestamp;P1;durP1;ratioP1;P2;durP2;ratioP2
16346;SDS011;8283;48.504;13.734;2023-03-01T00:02:40;8.30;;;5.47;;
16346;SDS011;8283;48.504;13.734;2023-03-01T00:05:24;8.73;;;5.88;;
16346;SDS011;8283;48.504;13.734;2023-03-01T00:08:09;8.57;;;5.28;;
16346;SDS011;8283;48.504;13.734;2023-03-01T00:13:58;7.78;;;5.30;;
16346;SDS011;8283;48.504;13.734;2023-03-01T00:16:45;6.82;;;4.72;;
16346;SDS011;8283;48.504;13.734;2023-03-01T00:19:30;7.40;;;4.85;;
16346;SDS011;8283;48.504;13.734;2023-03-01T00:22:16;6.95;;;4.57;;
16346;SDS011;8283;48.504;13.734;2023-03-01T00:25:00;7.93;;;4.97;;
16346;SDS011;8283;48.504;13.734;2023-03-01T00:27:46;6.82;;;4.38;;
16346;SDS011;8283;48.504;13.734;2023-03-01T00:30:32;7.78;;;4.85;;
16346;SDS011;8283;48.504;13.734;2023-03-01T00:33:16;7.28;;;4.90;;
16346;SDS011;8283;48.504;13.734;2023-03-01T00:36:01;6.90;;;4.90;;
16346;SDS011;8283;48.504;13.734;2023-03-01T00:38:46;7.38;;;4.85;;
16346;SDS011;8283;48.504;13.734;2023-03-01T00:41:31;6.63;;;4.53;;
16346;SDS011;8283;48.504;13.734;2023-03-01T00:44:17;8.70;;;4.85;;
16346;SDS011;8283;48.504;13.734;2023-03-01T00:47:01;10.30;;;4.93;;
16346;SDS011;8283;48.504;13.734;2023-03-01T00:49:45;7.22;;;4.78;;
16346;SDS011;8283;48.504;13.734;2023-03-01T00:52:30;7.15;;;4.90;;
16346;SDS011;8283;48.504;13.734;2023-03-01T00:55:14;8.60;;;4.93;;
16346;SDS011;8283;48.504;13.734;2023-03-01T00:57:58;8.05;;;4.90;;
16346;SDS011;8283;48.504;13.734;2023-03-01T01:00:43;7.22;;;5.10;;
16346;SDS011;8283;48.504;13.734;2023-03-01T01:03:27;6.80;;;4.57;;
16346;SDS011;8283;48.504;13.734;2023-03-01T01:06:16;6.18;;;4.82;;
16346;SDS011;8283;48.504;13.734;2023-03-01T01:09:05;8.05;;;4.78;;
16346;SDS011;8283;48.504;13.734;2023-03-01T01:11:50;8.43;;;4.70;;
16346;SDS011;8283;48.504;13.734;2023-03-01T01:14:36;7.00;;;4.40;;
16346;SDS011;8283;48.504;13.734;2023-03-01T01:17:21;9.60;;;5.50;;
16346;SDS011;8283;48.504;13.734;2023-03-01T01:20:05;8.75;;;4.63;;
16346;SDS011;8283;48.504;13.734;2023-03-01T01:22:51;8.45;;;5.50;;
16346;SDS011;8283;48.504;13.734;2023-03-01T01:25:35;8.02;;;5.03;;
16346;SDS011;8283;48.504;13.734;2023-03-01T01:28:20;7.97;;;5.35;;
16346;SDS011;8283;48.504;13.734;2023-03-01T01:31:04;7.07;;;5.10;;
16346;SDS011;8283;48.504;13.734;2023-03-01T01:33:49;7.25;;;4.80;;
16346;SDS011;8283;48.504;13.734;2023-03-01T01:36:34;9.32;;;5.45;;
16346;SDS011;8283;48.504;13.734;2023-03-01T01:39:19;7.30;;;4.65;;
16346;SDS011;8283;48.504;13.734;2023-03-01T01:42:04;8.32;;;5.25;;
16346;SDS011;8283;48.504;13.734;2023-03-01T01:44:48;15.23;;;5.07;;
16346;SDS011;8283;48.504;13.734;2023-03-01T01:47:52;7.70;;;5.10;;
16346;SDS011;8283;48.504;13.734;2023-03-01T01:50:40;7.57;;;5.20;;
16346;SDS011;8283;48.504;13.734;2023-03-01T01:53:25;9.60;;;5.63;;
16346;SDS011;8283;48.504;13.734;2023-03-01T01:56:10;6.45;;;4.78;;
16346;SDS011;8283;48.504;13.734;2023-03-01T01:58:57;6.97;;;4.57;;
16346;SDS011;8283;48.504;13.734;2023-03-01T02:01:42;9.30;;;4.65;;
16346;SDS011;8283;48.504;13.734;2023-03-01T02:04:28;7.15;;;5.03;;
16346;SDS011;8283;48.504;13.734;2023-03-01T02:07:14;7.68;;;4.88;;
16346;SDS011;8283;48.504;13.734;2023-03-01T02:10:01;7.93;;;5.20;;
16346;SDS011;8283;48.504;13.734;2023-03-01T02:12:46;9.23;;;4.75;;
16346;SDS011;8283;48.504;13.734;2023-03-01T02:15:34;10.88;;;5.53;;
16346;SDS011;8283;48.504;13.734;2023-03-01T02:18:21;8.10;;;4.93;;
16346;SDS011;8283;48.504;13.734;2023-03-01T02:21:17;11.88;;;5.55;;
16346;SDS011;8283;48.504;13.734;2023-03-01T02:24:19;10.13;;;5.05;;
16346;SDS011;8283;48.504;13.734;2023-03-01T02:27:15;12.85;;;6.13;;
16346;SDS011;8283;48.504;13.734;2023-03-01T02:30:02;9.52;;;6.35;;
16346;SDS011;8283;48.504;13.734;2023-03-01T02:32:47;9.43;;;5.90;;
16346;SDS011;8283;48.504;13.734;2023-03-01T02:35:37;8.48;;;5.50;;
16346;SDS011;8283;48.504;13.734;2023-03-01T02:38:22;9.38;;;5.60;;
16346;SDS011;8283;48.504;13.734;2023-03-01T02:41:07;10.00;;;5.65;;
16346;SDS011;8283;48.504;13.734;2023-03-01T02:43:55;10.43;;;5.88;;
16346;SDS011;8283;48.504;13.734;2023-03-01T02:46:43;12.52;;;6.90;;
16346;SDS011;8283;48.504;13.734;2023-03-01T02:49:33;10.65;;;5.22;;
16346;SDS011;8283;48.504;13.734;2023-03-01T02:55:36;8.77;;;4.68;;
16346;SDS011;8283;48.504;13.734;2023-03-01T02:58:23;8.20;;;5.10;;
16346;SDS011;8283;48.504;13.734;2023-03-01T03:01:07;8.32;;;5.47;;
16346;SDS011;8283;48.504;13.734;2023-03-01T03:03:53;9.75;;;5.93;;
16346;SDS011;8283;48.504;13.734;2023-03-01T03:06:38;14.20;;;7.65;;
16346;SDS011;8283;48.504;13.734;2023-03-01T03:09:22;10.93;;;5.80;;
16346;SDS011;8283;48.504;13.734;2023-03-01T03:12:06;9.00;;;5.47;;
16346;SDS011;8283;48.504;13.734;2023-03-01T03:14:52;8.90;;;5.75;;
16346;SDS011;8283;48.504;13.734;2023-03-01T03:17:36;9.88;;;5.72;;
16346;SDS011;8283;48.504;13.734;2023-03-01T03:20:22;10.52;;;5.57;;
16346;SDS011;8283;48.504;13.734;2023-03-01T03:23:09;9.43;;;6.35;;
16346;SDS011;8283;48.504;13.734;2023-03-01T03:25:53;9.25;;;6.03;;
16346;SDS011;8283;48.504;13.734;2023-03-01T03:28:38;7.93;;;5.20;;
16346;SDS011;8283;48.504;13.734;2023-03-01T03:31:23;9.50;;;6.03;;
16346;SDS011;8283;48.504;13.734;2023-03-01T03:34:07;10.55;;;5.53;;
16346;SDS011;8283;48.504;13.734;2023-03-01T03:36:55;9.38;;;6.20;;
16346;SDS011;8283;48.504;13.734;2023-03-01T03:39:45;9.38;;;6.45;;
16346;SDS011;8283;48.504;13.734;2023-03-01T03:42:30;9.98;;;6.10;;
16346;SDS011;8283;48.504;13.734;2023-03-01T03:45:15;11.30;;;6.57;;
16346;SDS011;8283;48.504;13.734;2023-03-01T03:48:00;11.02;;;6.30;;
16346;SDS011;8283;48.504;13.734;2023-03-01T03:50:49;10.20;;;6.80;;
16346;SDS011;8283;48.504;13.734;2023-03-01T03:53:35;9.10;;;5.63;;
16346;SDS011;8283;48.504;13.734;2023-03-01T03:56:20;9.73;;;5.95;;
16346;SDS011;8283;48.504;13.734;2023-03-01T03:59:04;13.90;;;6.78;;
16346;SDS011;8283;48.504;13.734;2023-03-01T04:01:49;10.23;;;6.28;;
16346;SDS011;8283;48.504;13.734;2023-03-01T04:04:34;10.13;;;6.38;;
16346;SDS011;8283;48.504;13.734;2023-03-01T04:07:18;10.90;;;5.90;;
16346;SDS011;8283;48.504;13.734;2023-03-01T04:10:03;10.85;;;6.78;;
16346;SDS011;8283;48.504;13.734;2023-03-01T04:12:50;8.82;;;5.55;;
16346;SDS011;8283;48.504;13.734;2023-03-01T04:15:34;8.52;;;5.63;;
16346;SDS011;8283;48.504;13.734;2023-03-01T04:18:19;9.45;;;6.47;;
16346;SDS011;8283;48.504;13.734;2023-03-01T04:21:05;13.43;;;6.35;;
16346;SDS011;8283;48.504;13.734;2023-03-01T04:23:49;10.07;;;6.65;;
16346;SDS011;8283;48.504;13.734;2023-03-01T04:26:35;11.15;;;6.32;;
16346;SDS011;8283;48.504;13.734;2023-03-01T04:29:20;9.63;;;6.22;;
16346;SDS011;8283;48.504;13.734;2023-03-01T04:32:04;8.65;;;5.57;;
16346;SDS011;8283;48.504;13.734;2023-03-01T04:34:48;9.75;;;5.70;;
16346;SDS011;8283;48.504;13.734;2023-03-01T04:37:33;11.20;;;5.85;;
16346;SDS011;8283;48.504;13.734;2023-03-01T04:40:18;10.77;;;5.97;;
16346;SDS011;8283;48.504;13.734;2023-03-01T04:43:03;10.25;;;5.97;;
16346;SDS011;8283;48.504;13.734;2023-03-01T04:45:48;11.48;;;5.82;;
16346;SDS011;8283;48.504;13.734;2023-03-01T04:48:32;9.32;;;6.05;;
16346;SDS011;8283;48.504;13.734;2023-03-01T04:51:16;12.43;;;7.00;;
16346;SDS011;8283;48.504;13.734;2023-03-01T04:54:02;14.32;;;7.70;;
16346;SDS011;8283;48.504;13.734;2023-03-01T04:56:47;10.10;;;6.63;;
16346;SDS011;8283;48.504;13.734;2023-03-01T04:59:31;9.52;;;6.05;;
16346;SDS011;8283;48.504;13.734;2023-03-01T05:02:15;8.25;;;6.07;;
16346;SDS011;8283;48.504;13.734;2023-03-01T05:05:00;13.40;;;7.75;;
16346;SDS011;8283;48.504;13.734;2023-03-01T05:07:44;12.30;;;7.47;;
16346;SDS011;8283;48.504;13.734;2023-03-01T05:10:29;12.23;;;6.22;;
16346;SDS011;8283;48.504;13.734;2023-03-01T05:13:15;15.10;;;7.15;;
16346;SDS011;8283;48.504;13.734;2023-03-01T05:16:05;13.60;;;7.45;;
16346;SDS011;8283;48.504;13.734;2023-03-01T05:18:50;10.43;;;5.40;;
16346;SDS011;8283;48.504;13.734;2023-03-01T05:21:34;9.98;;;6.30;;
16346;SDS011;8283;48.504;13.734;2023-03-01T05:24:39;14.05;;;6.03;;
16346;SDS011;8283;48.504;13.734;2023-03-01T05:27:23;12.23;;;6.00;;
16346;SDS011;8283;48.504;13.734;2023-03-01T05:30:07;16.67;;;7.07;;
16346;SDS011;8283;48.504;13.734;2023-03-01T05:32:58;8.68;;;5.78;;
16346;SDS011;8283;48.504;13.734;2023-03-01T05:35:43;8.88;;;5.60;;
16346;SDS011;8283;48.504;13.734;2023-03-01T05:38:28;10.15;;;6.75;;
16346;SDS011;8283;48.504;13.734;2023-03-01T05:41:13;10.75;;;6.70;;
16346;SDS011;8283;48.504;13.734;2023-03-01T05:43:59;10.90;;;6.47;;
16346;SDS011;8283;48.504;13.734;2023-03-01T05:46:43;8.63;;;6.07;;
16346;SDS011;8283;48.504;13.734;2023-03-01T05:49:28;12.18;;;6.63;;
16346;SDS011;8283;48.504;13.734;2023-03-01T05:52:13;14.18;;;6.75;;
16346;SDS011;8283;48.504;13.734;2023-03-01T05:54:58;11.02;;;6.45;;
16346;SDS011;8283;48.504;13.734;2023-03-01T05:57:43;12.57;;;7.13;;
16346;SDS011;8283;48.504;13.734;2023-03-01T06:00:27;11.05;;;6.88;;
16346;SDS011;8283;48.504;13.734;2023-03-01T06:03:15;11.85;;;6.43;;
16346;SDS011;8283;48.504;13.734;2023-03-01T06:06:01;9.85;;;6.78;;
16346;SDS011;8283;48.504;13.734;2023-03-01T06:08:45;9.45;;;6.35;;
16346;SDS011;8283;48.504;13.734;2023-03-01T06:11:30;19.33;;;8.63;;
16346;SDS011;8283;48.504;13.734;2023-03-01T06:14:14;12.52;;;8.23;;
16346;SDS011;8283;48.504;13.734;2023-03-01T06:16:59;11.43;;;6.75;;
16346;SDS011;8283;48.504;13.734;2023-03-01T06:19:43;13.43;;;7.13;;
16346;SDS011;8283;48.504;13.734;2023-03-01T06:22:27;15.88;;;8.57;;
16346;SDS011;8283;48.504;13.734;2023-03-01T06:25:12;10.85;;;6.25;;
16346;SDS011;8283;48.504;13.734;2023-03-01T06:27:59;12.48;;;7.13;;
16346;SDS011;8283;48.504;13.734;2023-03-01T06:30:43;11.88;;;6.20;;
16346;SDS011;8283;48.504;13.734;2023-03-01T06:33:28;8.45;;;5.05;;
16346;SDS011;8283;48.504;13.734;2023-03-01T06:36:12;9.75;;;6.22;;
16346;SDS011;8283;48.504;13.734;2023-03-01T06:38:56;10.25;;;6.35;;
16346;SDS011;8283;48.504;13.734;2023-03-01T06:41:41;8.95;;;5.53;;
16346;SDS011;8283;48.504;13.734;2023-03-01T06:44:25;9.73;;;5.95;;
16346;SDS011;8283;48.504;13.734;2023-03-01T06:47:09;10.68;;;6.32;;
16346;SDS011;8283;48.504;13.734;2023-03-01T06:49:54;12.32;;;7.00;;
16346;SDS011;8283;48.504;13.734;2023-03-01T06:52:38;11.52;;;6.63;;
16346;SDS011;8283;48.504;13.734;2023-03-01T06:55:22;10.43;;;6.70;;
16346;SDS011;8283;48.504;13.734;2023-03-01T06:58:08;12.80;;;7.72;;
16346;SDS011;8283;48.504;13.734;2023-03-01T07:00:53;9.65;;;6.75;;
16346;SDS011;8283;48.504;13.734;2023-03-01T07:03:38;12.45;;;7.47;;
16346;SDS011;8283;48.504;13.734;2023-03-01T07:06:22;13.55;;;6.95;;
16346;SDS011;8283;48.504;13.734;2023-03-01T07:09:07;10.60;;;6.20;;
16346;SDS011;8283;48.504;13.734;2023-03-01T07:11:51;15.63;;;7.03;;
16346;SDS011;8283;48.504;13.734;2023-03-01T07:14:35;11.63;;;6.90;;
16346;SDS011;8283;48.504;13.734;2023-03-01T07:17:19;11.05;;;7.32;;
16346;SDS011;8283;48.504;13.734;2023-03-01T07:20:04;13.43;;;6.93;;
16346;SDS011;8283;48.504;13.734;2023-03-01T07:22:48;12.45;;;7.32;;
16346;SDS011;8283;48.504;13.734;2023-03-01T07:25:33;14.77;;;7.70;;
16346;SDS011;8283;48.504;13.734;2023-03-01T07:28:17;9.73;;;5.85;;
16346;SDS011;8283;48.504;13.734;2023-03-01T07:31:02;14.02;;;7.13;;
16346;SDS011;8283;48.504;13.734;2023-03-01T07:33:47;12.63;;;7.63;;
16346;SDS011;8283;48.504;13.734;2023-03-01T07:36:31;11.70;;;6.97;;
16346;SDS011;8283;48.504;13.734;2023-03-01T07:39:15;10.18;;;6.25;;
16346;SDS011;8283;48.504;13.734;2023-03-01T07:42:00;10.20;;;6.68;;
16346;SDS011;8283;48.504;13.734;2023-03-01T07:44:44;11.45;;;6.55;;
16346;SDS011;8283;48.504;13.734;2023-03-01T07:47:28;13.68;;;6.82;;
16346;SDS011;8283;48.504;13.734;2023-03-01T07:50:12;11.02;;;7.13;;
16346;SDS011;8283;48.504;13.734;2023-03-01T07:52:57;10.02;;;6.32;;
16346;SDS011;8283;48.504;13.734;2023-03-01T07:55:41;14.40;;;6.60;;
16346;SDS011;8283;48.504;13.734;2023-03-01T07:58:26;12.40;;;7.53;;
16346;SDS011;8283;48.504;13.734;2023-03-01T08:01:11;13.18;;;7.13;;
16346;SDS011;8283;48.504;13.734;2023-03-01T08:03:58;11.75;;;7.38;;
16346;SDS011;8283;48.504;13.734;2023-03-01T08:06:42;10.48;;;6.82;;
16346;SDS011;8283;48.504;13.734;2023-03-01T08:09:26;16.20;;;8.25;;
16346;SDS011;8283;48.504;13.734;2023-03-01T08:12:10;10.50;;;7.35;;
16346;SDS011;8283;48.504;13.734;2023-03-01T08:14:54;12.15;;;8.07;;
16346;SDS011;8283;48.504;13.734;2023-03-01T08:17:40;13.30;;;7.88;;
16346;SDS011;8283;48.504;13.734;2023-03-01T08:20:24;12.52;;;7.32;;
16346;SDS011;8283;48.504;13.734;2023-03-01T08:23:09;13.88;;;8.38;;
16346;SDS011;8283;48.504;13.734;2023-03-01T08:25:53;11.95;;;8.13;;
16346;SDS011;8283;48.504;13.734;2023-03-01T08:28:38;12.07;;;7.90;;
16346;SDS011;8283;48.504;13.734;2023-03-01T08:31:25;12.77;;;8.40;;
16346;SDS011;8283;48.504;13.734;2023-03-01T08:34:19;10.88;;;7.38;;
16346;SDS011;8283;48.504;13.734;2023-03-01T08:37:04;11.57;;;8.10;;
16346;SDS011;8283;48.504;13.734;2023-03-01T08:39:48;10.43;;;7.22;;
16346;SDS011;8283;48.504;13.734;2023-03-01T08:42:32;11.55;;;6.78;;
16346;SDS011;8283;48.504;13.734;2023-03-01T08:45:16;10.82;;;7.70;;
16346;SDS011;8283;48.504;13.734;2023-03-01T08:48:02;11.48;;;8.05;;
16346;SDS011;8283;48.504;13.734;2023-03-01T08:50:46;11.65;;;8.10;;
16346;SDS011;8283;48.504;13.734;2023-03-01T08:53:30;12.55;;;8.75;;
16346;SDS011;8283;48.504;13.734;2023-03-01T08:56:15;10.15;;;7.18;;
16346;SDS011;8283;48.504;13.734;2023-03-01T08:59:00;11.55;;;7.93;;
16346;SDS011;8283;48.504;13.734;2023-03-01T09:01:45;9.60;;;7.13;;
16346;SDS011;8283;48.504;13.734;2023-03-01T09:04:29;13.13;;;8.10;;
16346;SDS011;8283;48.504;13.734;2023-03-01T09:07:13;11.00;;;7.15;;
16346;SDS011;8283;48.504;13.734;2023-03-01T09:09:57;11.50;;;8.15;;
16346;SDS011;8283;48.504;13.734;2023-03-01T09:12:41;9.32;;;6.57;;
16346;SDS011;8283;48.504;13.734;2023-03-01T09:15:26;8.93;;;7.22;;
16346;SDS011;8283;48.504;13.734;2023-03-01T09:18:10;10.18;;;6.78;;
16346;SDS011;8283;48.504;13.734;2023-03-01T09:21:02;8.65;;;7.20;;
16346;SDS011;8283;48.504;13.734;2023-03-01T09:24:05;7.72;;;6.10;;
16346;SDS011;8283;48.504;13.734;2023-03-01T09:26:52;9.00;;;6.43;;
16346;SDS011;8283;48.504;13.734;2023-03-01T09:29:38;6.93;;;5.93;;
16346;SDS011;8283;48.504;13.734;2023-03-01T09:32:23;8.00;;;6.65;;
16346;SDS011;8283;48.504;13.734;2023-03-01T09:35:08;8.30;;;6.43;;
16346;SDS011;8283;48.504;13.734;2023-03-01T09:37:52;7.32;;;5.78;;
16346;SDS011;8283;48.504;13.734;2023-03-01T09:40:37;7.75;;;5.80;;
16346;SDS011;8283;48.504;13.734;2023-03-01T09:46:29;8.63;;;6.07;;
16346;SDS011;8283;48.504;13.734;2023-03-01T09:49:22;11.90;;;5.80;;
16346;SDS011;8283;48.504;13.734;2023-03-01T09:52:15;7.88;;;6.30;;
16346;SDS011;8283;48.504;13.734;2023-03-01T09:55:26;7.55;;;6.10;;
16346;SDS011;8283;48.504;13.734;2023-03-01T09:58:25;7.90;;;6.00;;
16346;SDS011;8283;48.504;13.734;2023-03-01T10:07:54;8.15;;;5.68;;
16346;SDS011;8283;48.504;13.734;2023-03-01T10:10:40;8.38;;;5.50;;
16346;SDS011;8283;48.504;13.734;2023-03-01T10:13:46;7.70;;;5.60;;
16346;SDS011;8283;48.504;13.734;2023-03-01T10:22:29;7.38;;;5.75;;
16346;SDS011;8283;48.504;13.734;2023-03-01T10:25:17;8.02;;;5.10;;
16346;SDS011;8283;48.504;13.734;2023-03-01T10:28:29;6.95;;;5.18;;
16346;SDS011;8283;48.504;13.734;2023-03-01T10:31:32;5.60;;;4.88;;
16346;SDS011;8283;48.504;13.734;2023-03-01T10:34:29;7.35;;;5.60;;
16346;SDS011;8283;48.504;13.734;2023-03-01T10:37:16;6.28;;;4.60;;
16346;SDS011;8283;48.504;13.734;2023-03-01T10:40:05;6.80;;;4.60;;
16346;SDS011;8283;48.504;13.734;2023-03-01T10:42:52;6.45;;;4.65;;
16346;SDS011;8283;48.504;13.734;2023-03-01T10:45:36;7.28;;;4.85;;
16346;SDS011;8283;48.504;13.734;2023-03-01T10:48:23;8.13;;;4.90;;
16346;SDS011;8283;48.504;13.734;2023-03-01T10:51:12;7.18;;;5.20;;
16346;SDS011;8283;48.504;13.734;2023-03-01T10:56:46;6.97;;;5.07;;
16346;SDS011;8283;48.504;13.734;2023-03-01T10:59:38;5.50;;;4.40;;
16346;SDS011;8283;48.504;13.734;2023-03-01T11:07:59;8.02;;;5.10;;
16346;SDS011;8283;48.504;13.734;2023-03-01T11:10:45;6.00;;;4.18;;
16346;SDS011;8283;48.504;13.734;2023-03-01T11:13:30;5.38;;;4.30;;
16346;SDS011;8283;48.504;13.734;2023-03-01T11:16:14;5.57;;;4.28;;
16346;SDS011;8283;48.504;13.734;2023-03-01T11:18:59;6.70;;;5.10;;
16346;SDS011;8283;48.504;13.734;2023-03-01T11:21:55;6.18;;;4.13;;
16346;SDS011;8283;48.504;13.734;2023-03-01T11:24:47;7.47;;;5.15;;
16346;SDS011;8283;48.504;13.734;2023-03-01T11:27:38;5.00;;;4.25;;
16346;SDS011;8283;48.504;13.734;2023-03-01T11:30:27;7.18;;;4.53;;
16346;SDS011;8283;48.504;13.734;2023-03-01T11:42:28;5.57;;;4.30;;
16346;SDS011;8283;48.504;13.734;2023-03-01T11:45:27;5.63;;;3.92;;
16346;SDS011;8283;48.504;13.734;2023-03-01T11:57:43;5.30;;;3.90;;
16346;SDS011;8283;48.504;13.734;2023-03-01T12:01:00;5.45;;;3.50;;
16346;SDS011;8283;48.504;13.734;2023-03-01T12:04:18;4.07;;;3.53;;
16346;SDS011;8283;48.504;13.734;2023-03-01T12:07:17;4.38;;;3.28;;
16346;SDS011;8283;48.504;13.734;2023-03-01T12:10:30;3.90;;;2.75;;
16346;SDS011;8283;48.504;13.734;2023-03-01T12:19:52;6.25;;;4.68;;
16346;SDS011;8283;48.504;13.734;2023-03-01T12:23:16;5.55;;;4.10;;
16346;SDS011;8283;48.504;13.734;2023-03-01T12:35:11;5.43;;;3.85;;
16346;SDS011;8283;48.504;13.734;2023-03-01T12:38:20;6.28;;;5.22;;
16346;SDS011;8283;48.504;13.734;2023-03-01T12:50:42;7.45;;;4.82;;
16346;SDS011;8283;48.504;13.734;2023-03-01T12:53:37;6.38;;;4.72;;
16346;SDS011;8283;48.504;13.734;2023-03-01T12:56:29;5.97;;;4.93;;
16346;SDS011;8283;48.504;13.734;2023-03-01T13:05:23;9.40;;;6.70;;
16346;SDS011;8283;48.504;13.734;2023-03-01T13:08:31;11.18;;;7.15;;
16346;SDS011;8283;48.504;13.734;2023-03-01T13:11:21;8.95;;;7.35;;
16346;SDS011;8283;48.504;13.734;2023-03-01T13:17:20;9.68;;;6.20;;
16346;SDS011;8283;48.504;13.734;2023-03-01T13:20:17;8.95;;;6.40;;
16346;SDS011;8283;48.504;13.734;2023-03-01T13:23:11;7.45;;;5.60;;
16346;SDS011;8283;48.504;13.734;2023-03-01T13:28:58;7.20;;;5.30;;
16346;SDS011;8283;48.504;13.734;2023-03-01T13:34:45;7.70;;;5.10;;
16346;SDS011;8283;48.504;13.734;2023-03-01T13:37:35;6.88;;;4.53;;
16346;SDS011;8283;48.504;13.734;2023-03-01T13:46:16;6.65;;;4.93;;
16346;SDS011;8283;48.504;13.734;2023-03-01T13:49:04;6.22;;;4.82;;
16346;SDS011;8283;48.504;13.734;2023-03-01T13:51:49;4.78;;;3.97;;
16346;SDS011;8283;48.504;13.734;2023-03-01T13:54:35;6.82;;;4.20;;
16346;SDS011;8283;48.504;13.734;2023-03-01T13:57:33;4.57;;;3.85;;
16346;SDS011;8283;48.504;13.734;2023-03-01T14:00:27;7.03;;;4.47;;
16346;SDS011;8283;48.504;13.734;2023-03-01T14:03:19;4.95;;;3.40;;
16346;SDS011;8283;48.504;13.734;2023-03-01T14:06:08;5.95;;;4.28;;
16346;SDS011;8283;48.504;13.734;2023-03-01T14:09:05;7.68;;;4.50;;
16346;SDS011;8283;48.504;13.734;2023-03-01T14:15:13;8.75;;;5.30;;
16346;SDS011;8283;48.504;13.734;2023-03-01T14:18:08;6.35;;;4.22;;
16346;SDS011;8283;48.504;13.734;2023-03-01T14:21:06;4.90;;;3.97;;
16346;SDS011;8283;48.504;13.734;2023-03-01T14:23:52;8.77;;;4.20;;
16346;SDS011;8283;48.504;13.734;2023-03-01T14:26:37;7.20;;;4.30;;
16346;SDS011;8283;48.504;13.734;2023-03-01T14:29:33;6.68;;;4.13;;
16346;SDS011;8283;48.504;13.734;2023-03-01T14:32:20;7.50;;;6.13;;
16346;SDS011;8283;48.504;13.734;2023-03-01T14:35:19;8.20;;;4.57;;
16346;SDS011;8283;48.504;13.734;2023-03-01T14:38:05;6.13;;;4.22;;
16346;SDS011;8283;48.504;13.734;2023-03-01T14:40:51;6.05;;;4.00;;
16346;SDS011;8283;48.504;13.734;2023-03-01T14:43:40;6.25;;;4.63;;
16346;SDS011;8283;48.504;13.734;2023-03-01T14:46:38;6.53;;;4.43;;
16346;SDS011;8283;48.504;13.734;2023-03-01T14:49:25;7.68;;;5.07;;
16346;SDS011;8283;48.504;13.734;2023-03-01T14:52:31;6.68;;;4.90;;
16346;SDS011;8283;48.504;13.734;2023-03-01T14:55:32;7.35;;;4.65;;
16346;SDS011;8283;48.504;13.734;2023-03-01T15:01:05;7.13;;;5.07;;
16346;SDS011;8283;48.504;13.734;2023-03-01T15:03:52;6.25;;;4.80;;
16346;SDS011;8283;48.504;13.734;2023-03-01T15:06:36;8.77;;;5.28;;
16346;SDS011;8283;48.504;13.734;2023-03-01T15:09:21;7.97;;;5.10;;
16346;SDS011;8283;48.504;13.734;2023-03-01T15:15:29;8.85;;;6.50;;
16346;SDS011;8283;48.504;13.734;2023-03-01T15:18:20;6.88;;;4.90;;
16346;SDS011;8283;48.504;13.734;2023-03-01T15:21:13;9.10;;;5.65;;
16346;SDS011;8283;48.504;13.734;2023-03-01T15:24:18;10.00;;;5.60;;
16346;SDS011;8283;48.504;13.734;2023-03-01T15:27:14;8.02;;;5.60;;
16346;SDS011;8283;48.504;13.734;2023-03-01T15:30:04;8.40;;;5.47;;
16346;SDS011;8283;48.504;13.734;2023-03-01T15:33:15;8.23;;;5.82;;
16346;SDS011;8283;48.504;13.734;2023-03-01T15:36:04;8.07;;;5.60;;
16346;SDS011;8283;48.504;13.734;2023-03-01T15:39:25;16.90;;;10.30;;
16346;SDS011;8283;48.504;13.734;2023-03-01T15:48:01;13.18;;;7.32;;
16346;SDS011;8283;48.504;13.734;2023-03-01T15:50:54;13.52;;;8.10;;
16346;SDS011;8283;48.504;13.734;2023-03-01T15:53:40;13.05;;;7.47;;
16346;SDS011;8283;48.504;13.734;2023-03-01T15:56:33;9.35;;;6.25;;
16346;SDS011;8283;48.504;13.734;2023-03-01T15:59:18;13.70;;;6.25;;
16346;SDS011;8283;48.504;13.734;2023-03-01T16:02:08;11.18;;;7.20;;
16346;SDS011;8283;48.504;13.734;2023-03-01T16:04:53;11.17;;;6.60;;
16346;SDS011;8283;48.504;13.734;2023-03-01T16:07:40;8.82;;;6.05;;
16346;SDS011;8283;48.504;13.734;2023-03-01T16:10:24;10.65;;;6.38;;
16346;SDS011;8283;48.504;13.734;2023-03-01T16:13:09;12.40;;;5.88;;
16346;SDS011;8283;48.504;13.734;2023-03-01T16:15:54;9.02;;;6.10;;
16346;SDS011;8283;48.504;13.734;2023-03-01T16:18:38;8.13;;;5.95;;
16346;SDS011;8283;48.504;13.734;2023-03-01T16:21:23;7.15;;;4.95;;
16346;SDS011;8283;48.504;13.734;2023-03-01T16:24:09;10.20;;;5.68;;
16346;SDS011;8283;48.504;13.734;2023-03-01T16:26:53;7.95;;;5.47;;
16346;SDS011;8283;48.504;13.734;2023-03-01T16:29:37;10.05;;;6.85;;
16346;SDS011;8283;48.504;13.734;2023-03-01T16:32:22;10.63;;;5.80;;
16346;SDS011;8283;48.504;13.734;2023-03-01T16:35:06;7.30;;;5.13;;
16346;SDS011;8283;48.504;13.734;2023-03-01T16:37:52;11.88;;;5.60;;
16346;SDS011;8283;48.504;13.734;2023-03-01T16:40:37;14.15;;;7.57;;
16346;SDS011;8283;48.504;13.734;2023-03-01T16:43:22;11.57;;;6.28;;
16346;SDS011;8283;48.504;13.734;2023-03-01T16:46:10;10.18;;;6.10;;
16346;SDS011;8283;48.504;13.734;2023-03-01T16:48:56;8.48;;;5.32;;
16346;SDS011;8283;48.504;13.734;2023-03-01T16:51:41;8.77;;;5.10;;
16346;SDS011;8283;48.504;13.734;2023-03-01T16:54:25;6.78;;;5.43;;
16346;SDS011;8283;48.504;13.734;2023-03-01T16:57:09;10.93;;;5.75;;
16346;SDS011;8283;48.504;13.734;2023-03-01T16:59:54;11.57;;;6.15;;
16346;SDS011;8283;48.504;13.734;2023-03-01T17:02:39;8.30;;;5.32;;
16346;SDS011;8283;48.504;13.734;2023-03-01T17:05:25;10.07;;;5.43;;
16346;SDS011;8283;48.504;13.734;2023-03-01T17:08:09;11.52;;;6.13;;
16346;SDS011;8283;48.504;13.734;2023-03-01T17:10:54;12.15;;;6.90;;
16346;SDS011;8283;48.504;13.734;2023-03-01T17:13:38;22.40;;;11.95;;
16346;SDS011;8283;48.504;13.734;2023-03-01T17:16:23;10.30;;;6.00;;
16346;SDS011;8283;48.504;13.734;2023-03-01T17:19:07;13.13;;;6.40;;
16346;SDS011;8283;48.504;13.734;2023-03-01T17:21:52;10.32;;;5.57;;
16346;SDS011;8283;48.504;13.734;2023-03-01T17:24:37;13.93;;;7.75;;
16346;SDS011;8283;48.504;13.734;2023-03-01T17:27:22;10.20;;;6.65;;
16346;SDS011;8283;48.504;13.734;2023-03-01T17:30:07;14.05;;;7.90;;
16346;SDS011;8283;48.504;13.734;2023-03-01T17:32:56;10.23;;;6.80;;
16346;SDS011;8283;48.504;13.734;2023-03-01T17:35:40;12.38;;;8.25;;
16346;SDS011;8283;48.504;13.734;2023-03-01T17:38:25;11.13;;;7.13;;
16346;SDS011;8283;48.504;13.734;2023-03-01T17:41:10;12.50;;;7.30;;
16346;SDS011;8283;48.504;13.734;2023-03-01T17:43:54;10.55;;;6.97;;
16346;SDS011;8283;48.504;13.734;2023-03-01T17:46:39;11.40;;;7.22;;
16346;SDS011;8283;48.504;13.734;2023-03-01T17:49:23;11.90;;;8.70;;
16346;SDS011;8283;48.504;13.734;2023-03-01T17:52:08;13.98;;;8.82;;
16346;SDS011;8283;48.504;13.734;2023-03-01T17:54:52;13.95;;;8.80;;
16346;SDS011;8283;48.504;13.734;2023-03-01T17:57:39;11.95;;;7.75;;
16346;SDS011;8283;48.504;13.734;2023-03-01T18:00:24;11.88;;;7.40;;
16346;SDS011;8283;48.504;13.734;2023-03-01T18:03:09;15.27;;;7.15;;
16346;SDS011;8283;48.504;13.734;2023-03-01T18:05:53;11.40;;;7.25;;
16346;SDS011;8283;48.504;13.734;2023-03-01T18:08:38;13.57;;;7.88;;
16346;SDS011;8283;48.504;13.734;2023-03-01T18:11:22;12.10;;;7.88;;
16346;SDS011;8283;48.504;13.734;2023-03-01T18:14:08;10.32;;;7.60;;
16346;SDS011;8283;48.504;13.734;2023-03-01T18:16:56;14.00;;;8.93;;
16346;SDS011;8283;48.504;13.734;2023-03-01T18:19:40;9.98;;;6.95;;
16346;SDS011;8283;48.504;13.734;2023-03-01T18:22:24;11.23;;;7.95;;
16346;SDS011;8283;48.504;13.734;2023-03-01T18:25:08;12.75;;;7.95;;
16346;SDS011;8283;48.504;13.734;2023-03-01T18:27:53;12.15;;;7.88;;
16346;SDS011;8283;48.504;13.734;2023-03-01T18:30:37;11.82;;;7.53;;
16346;SDS011;8283;48.504;13.734;2023-03-01T18:33:22;13.10;;;8.07;;